sensor_id;sensor_type;location;lat;lon;timestamp;P1;durP1;ratioP1;P2;durP2;ratioP2
42948;SDS011;28587;46.794;23.594;2022-09-21T00:07:43;2.97;;;2.10;;
42948;SDS011;28587;46.794;23.594;2022-09-21T00:12:44;3.28;;;2.78;;
42948;SDS011;28587;46.794;23.594;2022-09-21T00:17:50;3.15;;;2.13;;
42948;SDS011;28587;46.794;23.594;2022-09-21T00:22:52;3.97;;;2.30;;
42948;SDS011;28587;46.794;23.594;2022-09-21T00:27:53;3.00;;;2.35;;
42948;SDS011;28587;46.794;23.594;2022-09-21T00:32:55;4.07;;;2.17;;
42948;SDS011;28587;46.794;23.594;2022-09-21T00:37:59;3.75;;;2.20;;
42948;SDS011;28587;46.794;23.594;2022-09-21T00:43:14;4.25;;;2.10;;
42948;SDS011;28587;46.794;23.594;2022-09-21T00:48:15;4.22;;;2.05;;
42948;SDS011;28587;46.794;23.594;2022-09-21T00:53:16;2.63;;;2.10;;
42948;SDS011;28587;46.794;23.594;2022-09-21T00:58:18;2.20;;;2.00;;
42948;SDS011;28587;46.794;23.594;2022-09-21T01:03:24;2.58;;;2.28;;
42948;SDS011;28587;46.794;23.594;2022-09-21T01:08:26;2.72;;;2.05;;
42948;SDS011;28587;46.794;23.594;2022-09-21T01:13:34;2.65;;;2.03;;
42948;SDS011;28587;46.794;23.594;2022-09-21T01:18:57;3.25;;;2.10;;
42948;SDS011;28587;46.794;23.594;2022-09-21T01:24:17;3.00;;;2.08;;
42948;SDS011;28587;46.794;23.594;2022-09-21T01:34:38;3.22;;;2.42;;
42948;SDS011;28587;46.794;23.594;2022-09-21T01:39:43;2.72;;;2.13;;
42948;SDS011;28587;46.794;23.594;2022-09-21T01:44:47;2.97;;;2.05;;
42948;SDS011;28587;46.794;23.594;2022-09-21T01:49:51;2.40;;;1.90;;
42948;SDS011;28587;46.794;23.594;2022-09-21T01:54:57;2.00;;;1.83;;
42948;SDS011;28587;46.794;23.594;2022-09-21T02:00:02;2.95;;;1.65;;
42948;SDS011;28587;46.794;23.594;2022-09-21T02:05:11;2.10;;;1.90;;
42948;SDS011;28587;46.794;23.594;2022-09-21T02:10:23;2.50;;;1.83;;
42948;SDS011;28587;46.794;23.594;2022-09-21T02:20:55;2.22;;;1.80;;
42948;SDS011;28587;46.794;23.594;2022-09-21T02:36:37;2.17;;;1.92;;
42948;SDS011;28587;46.794;23.594;2022-09-21T02:42:10;2.03;;;1.90;;
42948;SDS011;28587;46.794;23.594;2022-09-21T02:47:17;3.53;;;1.88;;
42948;SDS011;28587;46.794;23.594;2022-09-21T02:52:21;2.25;;;1.83;;
42948;SDS011;28587;46.794;23.594;2022-09-21T02:57:24;2.40;;;1.85;;
42948;SDS011;28587;46.794;23.594;2022-09-21T03:02:34;1.92;;;1.83;;
42948;SDS011;28587;46.794;23.594;2022-09-21T03:07:39;1.70;;;1.60;;
42948;SDS011;28587;46.794;23.594;2022-09-21T03:12:41;2.05;;;1.88;;
42948;SDS011;28587;46.794;23.594;2022-09-21T03:17:43;2.33;;;1.88;;
42948;SDS011;28587;46.794;23.594;2022-09-21T03:22:44;2.72;;;1.83;;
42948;SDS011;28587;46.794;23.594;2022-09-21T03:27:45;2.13;;;1.92;;
42948;SDS011;28587;46.794;23.594;2022-09-21T03:32:52;2.10;;;1.90;;
42948;SDS011;28587;46.794;23.594;2022-09-21T03:37:53;2.08;;;1.60;;
42948;SDS011;28587;46.794;23.594;2022-09-21T03:42:54;2.30;;;1.95;;
42948;SDS011;28587;46.794;23.594;2022-09-21T03:47:56;1.90;;;1.80;;
42948;SDS011;28587;46.794;23.594;2022-09-21T03:52:58;2.35;;;1.83;;
42948;SDS011;28587;46.794;23.594;2022-09-21T03:57:59;1.73;;;1.40;;
42948;SDS011;28587;46.794;23.594;2022-09-21T04:03:00;2.15;;;1.92;;
42948;SDS011;28587;46.794;23.594;2022-09-21T04:08:01;2.75;;;2.05;;
42948;SDS011;28587;46.794;23.594;2022-09-21T04:13:02;2.75;;;2.03;;
42948;SDS011;28587;46.794;23.594;2022-09-21T04:18:03;2.35;;;1.63;;
42948;SDS011;28587;46.794;23.594;2022-09-21T04:23:05;2.65;;;1.92;;
42948;SDS011;28587;46.794;23.594;2022-09-21T04:28:06;2.45;;;1.83;;
42948;SDS011;28587;46.794;23.594;2022-09-21T04:33:07;4.65;;;2.00;;
42948;SDS011;28587;46.794;23.594;2022-09-21T04:38:08;3.97;;;1.92;;
42948;SDS011;28587;46.794;23.594;2022-09-21T04:43:09;4.00;;;2.13;;
42948;SDS011;28587;46.794;23.594;2022-09-21T04:48:10;3.60;;;2.03;;
42948;SDS011;28587;46.794;23.594;2022-09-21T04:53:11;2.85;;;1.95;;
42948;SDS011;28587;46.794;23.594;2022-09-21T04:58:12;4.68;;;2.38;;
42948;SDS011;28587;46.794;23.594;2022-09-21T05:03:13;4.90;;;1.90;;
42948;SDS011;28587;46.794;23.594;2022-09-21T05:08:14;3.88;;;1.90;;
42948;SDS011;28587;46.794;23.594;2022-09-21T05:13:16;3.55;;;1.88;;
42948;SDS011;28587;46.794;23.594;2022-09-21T05:18:17;3.20;;;2.10;;
42948;SDS011;28587;46.794;23.594;2022-09-21T05:23:18;2.88;;;1.75;;
42948;SDS011;28587;46.794;23.594;2022-09-21T05:28:18;2.97;;;1.98;;
42948;SDS011;28587;46.794;23.594;2022-09-21T05:33:20;7.50;;;2.88;;
42948;SDS011;28587;46.794;23.594;2022-09-21T05:38:22;8.40;;;2.80;;
42948;SDS011;28587;46.794;23.594;2022-09-21T05:43:23;5.75;;;2.50;;
42948;SDS011;28587;46.794;23.594;2022-09-21T05:48:26;5.03;;;2.70;;
42948;SDS011;28587;46.794;23.594;2022-09-21T05:54:06;5.40;;;2.10;;
42948;SDS011;28587;46.794;23.594;2022-09-21T05:59:31;4.03;;;2.47;;
42948;SDS011;28587;46.794;23.594;2022-09-21T06:04:55;4.28;;;2.42;;
42948;SDS011;28587;46.794;23.594;2022-09-21T06:09:58;5.80;;;2.33;;
42948;SDS011;28587;46.794;23.594;2022-09-21T06:14:59;2.88;;;2.22;;
42948;SDS011;28587;46.794;23.594;2022-09-21T06:20:00;3.45;;;2.22;;
42948;SDS011;28587;46.794;23.594;2022-09-21T06:25:02;5.10;;;2.40;;
42948;SDS011;28587;46.794;23.594;2022-09-21T06:30:03;6.18;;;2.17;;
42948;SDS011;28587;46.794;23.594;2022-09-21T06:35:04;4.97;;;1.98;;
42948;SDS011;28587;46.794;23.594;2022-09-21T06:40:06;4.68;;;2.22;;
42948;SDS011;28587;46.794;23.594;2022-09-21T06:45:07;4.95;;;2.08;;
42948;SDS011;28587;46.794;23.594;2022-09-21T06:50:09;4.72;;;2.10;;
42948;SDS011;28587;46.794;23.594;2022-09-21T06:55:10;2.63;;;2.00;;
42948;SDS011;28587;46.794;23.594;2022-09-21T07:00:12;4.32;;;2.22;;
42948;SDS011;28587;46.794;23.594;2022-09-21T07:05:13;4.95;;;2.20;;
42948;SDS011;28587;46.794;23.594;2022-09-21T07:10:14;2.35;;;2.15;;
42948;SDS011;28587;46.794;23.594;2022-09-21T07:15:15;5.13;;;2.17;;
42948;SDS011;28587;46.794;23.594;2022-09-21T07:20:16;3.28;;;2.10;;
42948;SDS011;28587;46.794;23.594;2022-09-21T07:25:17;3.85;;;1.95;;
42948;SDS011;28587;46.794;23.594;2022-09-21T07:30:18;4.88;;;2.00;;
42948;SDS011;28587;46.794;23.594;2022-09-21T07:35:19;2.63;;;1.83;;
42948;SDS011;28587;46.794;23.594;2022-09-21T07:40:20;4.60;;;3.28;;
42948;SDS011;28587;46.794;23.594;2022-09-21T07:45:21;5.63;;;2.67;;
42948;SDS011;28587;46.794;23.594;2022-09-21T07:50:23;5.18;;;3.05;;
42948;SDS011;28587;46.794;23.594;2022-09-21T07:55:24;6.68;;;3.00;;
42948;SDS011;28587;46.794;23.594;2022-09-21T08:00:25;4.18;;;2.63;;
42948;SDS011;28587;46.794;23.594;2022-09-21T08:05:28;6.82;;;2.80;;
42948;SDS011;28587;46.794;23.594;2022-09-21T08:10:29;5.63;;;2.95;;
42948;SDS011;28587;46.794;23.594;2022-09-21T08:15:31;5.53;;;2.90;;
42948;SDS011;28587;46.794;23.594;2022-09-21T08:20:32;5.65;;;2.78;;
42948;SDS011;28587;46.794;23.594;2022-09-21T08:25:33;2.95;;;2.60;;
42948;SDS011;28587;46.794;23.594;2022-09-21T08:30:34;4.10;;;2.30;;
42948;SDS011;28587;46.794;23.594;2022-09-21T08:35:35;7.82;;;3.05;;
42948;SDS011;28587;46.794;23.594;2022-09-21T08:40:38;3.65;;;2.70;;
42948;SDS011;28587;46.794;23.594;2022-09-21T08:45:41;3.33;;;2.30;;
42948;SDS011;28587;46.794;23.594;2022-09-21T08:50:45;5.60;;;2.60;;
42948;SDS011;28587;46.794;23.594;2022-09-21T08:55:55;4.63;;;2.63;;
42948;SDS011;28587;46.794;23.594;2022-09-21T09:01:41;5.32;;;2.72;;
42948;SDS011;28587;46.794;23.594;2022-09-21T09:22:11;3.95;;;2.47;;
42948;SDS011;28587;46.794;23.594;2022-09-21T09:27:26;4.20;;;2.30;;
42948;SDS011;28587;46.794;23.594;2022-09-21T09:32:32;5.80;;;2.53;;
42948;SDS011;28587;46.794;23.594;2022-09-21T09:37:44;3.97;;;2.53;;
42948;SDS011;28587;46.794;23.594;2022-09-21T09:53:25;4.10;;;2.75;;
42948;SDS011;28587;46.794;23.594;2022-09-21T10:03:56;3.47;;;2.28;;
42948;SDS011;28587;46.794;23.594;2022-09-21T10:09:18;3.53;;;2.03;;
42948;SDS011;28587;46.794;23.594;2022-09-21T10:14:24;2.22;;;1.80;;
42948;SDS011;28587;46.794;23.594;2022-09-21T10:19:27;2.40;;;1.75;;
42948;SDS011;28587;46.794;23.594;2022-09-21T10:24:29;3.70;;;1.85;;
42948;SDS011;28587;46.794;23.594;2022-09-21T10:45:18;2.83;;;1.90;;
42948;SDS011;28587;46.794;23.594;2022-09-21T10:50:25;3.17;;;1.95;;
42948;SDS011;28587;46.794;23.594;2022-09-21T10:55:41;3.17;;;1.80;;
42948;SDS011;28587;46.794;23.594;2022-09-21T11:00:46;3.85;;;2.05;;
42948;SDS011;28587;46.794;23.594;2022-09-21T11:05:50;3.17;;;2.03;;
42948;SDS011;28587;46.794;23.594;2022-09-21T11:10:59;2.45;;;1.90;;
42948;SDS011;28587;46.794;23.594;2022-09-21T12:24:51;4.32;;;1.70;;
42948;SDS011;28587;46.794;23.594;2022-09-21T12:29:56;2.45;;;1.83;;
42948;SDS011;28587;46.794;23.594;2022-09-21T12:35:05;1.90;;;1.75;;
42948;SDS011;28587;46.794;23.594;2022-09-21T12:40:22;6.50;;;1.80;;
42948;SDS011;28587;46.794;23.594;2022-09-21T12:45:37;1.95;;;1.77;;
42948;SDS011;28587;46.794;23.594;2022-09-21T12:50:43;4.35;;;2.00;;
42948;SDS011;28587;46.794;23.594;2022-09-21T12:55:49;1.50;;;1.40;;
42948;SDS011;28587;46.794;23.594;2022-09-21T13:01:04;2.58;;;1.50;;
42948;SDS011;28587;46.794;23.594;2022-09-21T13:06:27;1.63;;;1.48;;
42948;SDS011;28587;46.794;23.594;2022-09-21T13:11:52;4.28;;;1.80;;
42948;SDS011;28587;46.794;23.594;2022-09-21T13:16:59;1.75;;;1.40;;
42948;SDS011;28587;46.794;23.594;2022-09-21T13:27:18;1.90;;;1.70;;
42948;SDS011;28587;46.794;23.594;2022-09-21T13:32:20;2.08;;;1.65;;
42948;SDS011;28587;46.794;23.594;2022-09-21T13:37:24;3.75;;;1.90;;
42948;SDS011;28587;46.794;23.594;2022-09-21T13:47:38;2.15;;;1.80;;
42948;SDS011;28587;46.794;23.594;2022-09-21T13:52:45;3.67;;;1.60;;
42948;SDS011;28587;46.794;23.594;2022-09-21T13:57:51;4.25;;;1.88;;
42948;SDS011;28587;46.794;23.594;2022-09-21T14:02:56;4.00;;;1.88;;
42948;SDS011;28587;46.794;23.594;2022-09-21T14:08:01;2.78;;;1.50;;
42948;SDS011;28587;46.794;23.594;2022-09-21T14:13:36;1.60;;;1.50;;
42948;SDS011;28587;46.794;23.594;2022-09-21T14:18:40;1.65;;;1.55;;
42948;SDS011;28587;46.794;23.594;2022-09-21T14:29:37;1.48;;;1.38;;
42948;SDS011;28587;46.794;23.594;2022-09-21T14:34:39;1.80;;;1.70;;
42948;SDS011;28587;46.794;23.594;2022-09-21T14:39:42;1.88;;;1.40;;
42948;SDS011;28587;46.794;23.594;2022-09-21T14:44:45;2.45;;;1.80;;
42948;SDS011;28587;46.794;23.594;2022-09-21T14:49:58;1.77;;;1.60;;
42948;SDS011;28587;46.794;23.594;2022-09-21T15:00:45;2.65;;;1.60;;
42948;SDS011;28587;46.794;23.594;2022-09-21T15:05:54;1.95;;;1.58;;
42948;SDS011;28587;46.794;23.594;2022-09-21T15:11:08;2.47;;;1.60;;
42948;SDS011;28587;46.794;23.594;2022-09-21T15:27:08;2.15;;;1.38;;
42948;SDS011;28587;46.794;23.594;2022-09-21T15:32:24;2.42;;;1.50;;
42948;SDS011;28587;46.794;23.594;2022-09-21T15:37:33;2.92;;;1.50;;
42948;SDS011;28587;46.794;23.594;2022-09-21T15:42:37;2.72;;;1.42;;
42948;SDS011;28587;46.794;23.594;2022-09-21T15:48:09;1.40;;;1.30;;
42948;SDS011;28587;46.794;23.594;2022-09-21T15:53:14;1.75;;;1.40;;
42948;SDS011;28587;46.794;23.594;2022-09-21T15:58:28;3.10;;;1.88;;
42948;SDS011;28587;46.794;23.594;2022-09-21T16:03:37;2.28;;;1.42;;
42948;SDS011;28587;46.794;23.594;2022-09-21T16:08:39;1.67;;;1.55;;
42948;SDS011;28587;46.794;23.594;2022-09-21T16:13:40;1.63;;;1.40;;
42948;SDS011;28587;46.794;23.594;2022-09-21T16:19:01;1.83;;;1.30;;
42948;SDS011;28587;46.794;23.594;2022-09-21T16:24:08;2.53;;;1.60;;
42948;SDS011;28587;46.794;23.594;2022-09-21T16:29:17;1.83;;;1.25;;
42948;SDS011;28587;46.794;23.594;2022-09-21T16:34:31;2.35;;;1.50;;
42948;SDS011;28587;46.794;23.594;2022-09-21T16:39:34;1.65;;;1.40;;
42948;SDS011;28587;46.794;23.594;2022-09-21T16:44:35;1.50;;;1.40;;
42948;SDS011;28587;46.794;23.594;2022-09-21T16:49:38;1.55;;;1.33;;
42948;SDS011;28587;46.794;23.594;2022-09-21T16:54:39;1.88;;;1.27;;
42948;SDS011;28587;46.794;23.594;2022-09-21T16:59:40;1.63;;;1.52;;
42948;SDS011;28587;46.794;23.594;2022-09-21T17:04:41;2.40;;;1.40;;
42948;SDS011;28587;46.794;23.594;2022-09-21T17:09:44;1.85;;;1.63;;
42948;SDS011;28587;46.794;23.594;2022-09-21T17:14:47;1.80;;;1.70;;
42948;SDS011;28587;46.794;23.594;2022-09-21T17:19:51;1.77;;;1.20;;
42948;SDS011;28587;46.794;23.594;2022-09-21T17:24:53;1.23;;;1.13;;
42948;SDS011;28587;46.794;23.594;2022-09-21T17:29:53;1.60;;;1.50;;
42948;SDS011;28587;46.794;23.594;2022-09-21T17:40:15;1.60;;;1.50;;
42948;SDS011;28587;46.794;23.594;2022-09-21T17:50:26;3.88;;;1.60;;
42948;SDS011;28587;46.794;23.594;2022-09-21T17:55:27;1.88;;;1.48;;
42948;SDS011;28587;46.794;23.594;2022-09-21T18:05:50;2.72;;;1.92;;
42948;SDS011;28587;46.794;23.594;2022-09-21T18:21:14;5.68;;;4.00;;
42948;SDS011;28587;46.794;23.594;2022-09-21T18:26:18;10.05;;;4.80;;
42948;SDS011;28587;46.794;23.594;2022-09-21T18:32:03;6.40;;;4.78;;
42948;SDS011;28587;46.794;23.594;2022-09-21T18:58:20;5.28;;;4.78;;
42948;SDS011;28587;46.794;23.594;2022-09-21T19:03:21;8.10;;;5.10;;
42948;SDS011;28587;46.794;23.594;2022-09-21T19:13:45;6.55;;;5.63;;
42948;SDS011;28587;46.794;23.594;2022-09-21T19:35:22;6.65;;;5.47;;
42948;SDS011;28587;46.794;23.594;2022-09-21T19:40:31;4.88;;;4.38;;
42948;SDS011;28587;46.794;23.594;2022-09-21T19:51:34;5.60;;;5.00;;
42948;SDS011;28587;46.794;23.594;2022-09-21T19:56:45;7.63;;;5.22;;
42948;SDS011;28587;46.794;23.594;2022-09-21T20:02:11;6.30;;;5.22;;
42948;SDS011;28587;46.794;23.594;2022-09-21T20:07:24;5.65;;;5.05;;
42948;SDS011;28587;46.794;23.594;2022-09-21T20:13:11;5.93;;;5.30;;
42948;SDS011;28587;46.794;23.594;2022-09-21T20:23:55;6.22;;;4.80;;
42948;SDS011;28587;46.794;23.594;2022-09-21T20:29:01;6.97;;;4.75;;
42948;SDS011;28587;46.794;23.594;2022-09-21T20:34:02;6.18;;;4.95;;
42948;SDS011;28587;46.794;23.594;2022-09-21T20:39:02;7.68;;;4.53;;
42948;SDS011;28587;46.794;23.594;2022-09-21T20:44:04;5.70;;;4.97;;
42948;SDS011;28587;46.794;23.594;2022-09-21T20:49:05;8.55;;;4.65;;
42948;SDS011;28587;46.794;23.594;2022-09-21T20:54:07;5.57;;;4.50;;
42948;SDS011;28587;46.794;23.594;2022-09-21T20:59:08;7.35;;;4.60;;
42948;SDS011;28587;46.794;23.594;2022-09-21T21:04:09;5.32;;;4.40;;
42948;SDS011;28587;46.794;23.594;2022-09-21T21:09:11;5.13;;;4.60;;
42948;SDS011;28587;46.794;23.594;2022-09-21T21:14:11;5.65;;;4.30;;
42948;SDS011;28587;46.794;23.594;2022-09-21T21:19:12;7.78;;;4.80;;
42948;SDS011;28587;46.794;23.594;2022-09-21T21:24:13;4.32;;;3.92;;
42948;SDS011;28587;46.794;23.594;2022-09-21T21:29:33;6.68;;;4.03;;
42948;SDS011;28587;46.794;23.594;2022-09-21T21:34:34;4.28;;;3.95;;
42948;SDS011;28587;46.794;23.594;2022-09-21T21:39:35;4.72;;;3.88;;
42948;SDS011;28587;46.794;23.594;2022-09-21T21:44:36;4.50;;;4.00;;
42948;SDS011;28587;46.794;23.594;2022-09-21T21:49:37;4.60;;;3.67;;
42948;SDS011;28587;46.794;23.594;2022-09-21T21:54:38;4.10;;;3.75;;
42948;SDS011;28587;46.794;23.594;2022-09-21T21:59:40;4.10;;;3.70;;
42948;SDS011;28587;46.794;23.594;2022-09-21T22:04:42;4.90;;;4.10;;
42948;SDS011;28587;46.794;23.594;2022-09-21T22:09:43;3.90;;;3.50;;
42948;SDS011;28587;46.794;23.594;2022-09-21T22:14:44;3.83;;;3.53;;
42948;SDS011;28587;46.794;23.594;2022-09-21T22:19:46;4.07;;;3.75;;
42948;SDS011;28587;46.794;23.594;2022-09-21T22:24:48;4.00;;;3.63;;
42948;SDS011;28587;46.794;23.594;2022-09-21T22:29:49;4.40;;;3.97;;
42948;SDS011;28587;46.794;23.594;2022-09-21T22:34:50;4.95;;;4.28;;
42948;SDS011;28587;46.794;23.594;2022-09-21T22:39:51;6.00;;;3.80;;
42948;SDS011;28587;46.794;23.594;2022-09-21T22:44:52;3.70;;;3.40;;
42948;SDS011;28587;46.794;23.594;2022-09-21T22:49:53;4.60;;;3.75;;
42948;SDS011;28587;46.794;23.594;2022-09-21T22:54:55;3.95;;;3.55;;
42948;SDS011;28587;46.794;23.594;2022-09-21T22:59:56;4.05;;;3.65;;
42948;SDS011;28587;46.794;23.594;2022-09-21T23:04:57;4.05;;;3.75;;
42948;SDS011;28587;46.794;23.594;2022-09-21T23:09:58;4.15;;;3.58;;
42948;SDS011;28587;46.794;23.594;2022-09-21T23:14:59;4.00;;;3.42;;
42948;SDS011;28587;46.794;23.594;2022-09-21T23:20:00;3.78;;;3.30;;
42948;SDS011;28587;46.794;23.594;2022-09-21T23:25:02;3.53;;;3.20;;
42948;SDS011;28587;46.794;23.594;2022-09-21T23:30:06;3.60;;;3.08;;
42948;SDS011;28587;46.794;23.594;2022-09-21T23:35:07;3.17;;;2.88;;
42948;SDS011;28587;46.794;23.594;2022-09-21T23:40:08;4.93;;;3.10;;
42948;SDS011;28587;46.794;23.594;2022-09-21T23:45:09;4.18;;;3.47;;
42948;SDS011;28587;46.794;23.594;2022-09-21T23:50:10;3.60;;;3.30;;
42948;SDS011;28587;46.794;23.594;2022-09-21T23:55:11;3.38;;;3.08;;
